Time;durP1;ratioP1;P1;durP2;ratioP2;P2;SDS_P1;SDS_P2;PMS_P1;PMS_P2;Temp;Humidity;BMP_temperature;BMP_pressure;BME280_temperature;BME280_humidity;BME280_pressure;Samples;Min_cycle;Max_cycle;Signal;HPM_P1;HPM_P2
2022/04/28 00:00:24;;;;;;;5.27;4.50;;;11.90;87.40;;;;;;4954230;28;20195;-74
2022/04/28 00:02:50;;;;;;;5.68;4.75;;;11.90;87.50;;;;;;4956154;28;20577;-74
2022/04/28 00:05:16;;;;;;;5.30;4.60;;;11.90;87.80;;;;;;4955965;28;20172;-74
2022/04/28 00:07:42;;;;;;;5.40;4.13;;;11.80;88.10;;;;;;4955578;29;20247;-75
2022/04/28 00:10:08;;;;;;;6.20;4.10;;;11.80;88.50;;;;;;4955538;28;20603;-74
2022/04/28 00:12:35;;;;;;;5.30;4.65;;;11.80;88.90;;;;;;4955861;28;20575;-74
2022/04/28 00:15:01;;;;;;;6.53;5.25;;;11.70;88.90;;;;;;4955882;28;20204;-74
2022/04/28 00:17:26;;;;;;;8.27;4.88;;;11.70;89.30;;;;;;4923051;29;20534;-74
2022/04/28 00:19:52;;;;;;;4.90;4.13;;;11.70;89.80;;;;;;4954985;28;20208;-74
2022/04/28 00:22:18;;;;;;;6.57;4.90;;;11.70;90.00;;;;;;4955893;28;20165;-74
2022/04/28 00:24:44;;;;;;;5.60;4.07;;;11.70;90.20;;;;;;4955961;28;20561;-74
2022/04/28 00:27:10;;;;;;;6.90;4.88;;;11.60;90.10;;;;;;4955870;28;20571;-74
2022/04/28 00:29:36;;;;;;;6.10;4.03;;;11.60;90.40;;;;;;4954626;28;20320;-74
2022/04/28 00:32:02;;;;;;;4.57;4.17;;;11.60;90.40;;;;;;4938312;29;21209;-74
2022/04/28 00:34:28;;;;;;;4.97;4.57;;;11.60;90.70;;;;;;4955599;28;20291;-75
2022/04/28 00:36:53;;;;;;;7.50;5.17;;;11.50;90.80;;;;;;4938302;28;20275;-74
2022/04/28 00:39:19;;;;;;;5.10;4.43;;;11.50;90.90;;;;;;4921768;29;20196;-74
2022/04/28 00:41:45;;;;;;;5.50;4.70;;;11.50;91.00;;;;;;4938099;28;20176;-74
2022/04/28 00:44:11;;;;;;;5.27;4.47;;;11.40;91.10;;;;;;4938028;28;20252;-74
2022/04/28 00:46:38;;;;;;;4.95;4.32;;;11.40;91.30;;;;;;4937091;28;20180;-74
2022/04/28 00:51:50;;;;;;;4.40;3.90;;;11.40;91.50;;;;;;4955045;28;20177;-74
2022/04/28 00:54:16;;;;;;;5.97;3.90;;;11.30;91.60;;;;;;4937838;29;20202;-74
2022/04/28 00:56:42;;;;;;;4.67;4.13;;;11.30;91.80;;;;;;4938056;29;20203;-74
2022/04/28 00:59:10;;;;;;;5.28;3.72;;;11.30;92.00;;;;;;4937115;29;20600;-74
2022/04/28 01:01:37;;;;;;;4.97;4.35;;;11.30;92.10;;;;;;4937828;29;20172;-74
2022/04/28 01:04:03;;;;;;;5.25;4.25;;;11.20;92.20;;;;;;4937823;28;20161;-74
2022/04/28 01:06:29;;;;;;;4.93;4.00;;;11.20;92.40;;;;;;4954916;28;20219;-74
2022/04/28 01:08:57;;;;;;;4.80;4.20;;;11.20;92.50;;;;;;4937314;28;20168;-74
2022/04/28 01:11:25;;;;;;;4.85;3.92;;;11.20;92.70;;;;;;4921506;29;21278;-74
2022/04/28 01:13:58;;;;;;;5.95;4.90;;;11.20;92.80;;;;;;4937177;28;20176;-74
2022/04/28 01:16:28;;;;;;;6.47;4.40;;;11.10;92.80;;;;;;4937329;29;20204;-74
2022/04/28 01:18:54;;;;;;;6.73;4.60;;;11.10;93.00;;;;;;4936777;28;20184;-74
2022/04/28 01:21:20;;;;;;;8.80;5.20;;;11.00;93.10;;;;;;4937185;28;20567;-75
2022/04/28 01:23:47;;;;;;;5.78;4.43;;;11.00;93.30;;;;;;4937423;29;20549;-74
2022/04/28 01:26:16;;;;;;;5.45;4.10;;;11.00;93.50;;;;;;4937115;28;20195;-74
2022/04/28 01:28:42;;;;;;;5.70;4.40;;;10.90;93.60;;;;;;4936819;28;20263;-74
2022/04/28 01:31:08;;;;;;;6.22;5.00;;;10.90;93.70;;;;;;4936901;29;20568;-74
2022/04/28 01:33:42;;;;;;;9.32;4.72;;;10.90;94.00;;;;;;4937400;29;20164;-74
2022/04/28 01:36:12;;;;;;;6.80;4.93;;;10.80;94.00;;;;;;4937004;28;20692;-74
2022/04/28 01:38:39;;;;;;;7.45;5.43;;;10.80;94.10;;;;;;4936667;28;20180;-75
2022/04/28 01:41:05;;;;;;;5.72;4.15;;;10.80;94.40;;;;;;4920463;28;20251;-74
2022/04/28 01:43:31;;;;;;;5.27;4.70;;;10.70;94.50;;;;;;4921176;29;20185;-75
2022/04/28 01:45:56;;;;;;;11.50;10.30;;;10.70;94.60;;;;;;4937064;29;20579;-74
2022/04/28 01:48:43;;;;;;;5.60;5.07;;;10.70;94.80;;;;;;4936469;28;20228;-74
2022/04/28 01:57:13;;;;;;;5.88;4.15;;;10.70;95.10;;;;;;4920837;28;20547;-74
2022/04/28 02:00:00;;;;;;;4.97;4.47;;;10.60;95.10;;;;;;4953991;28;20196;-74
2022/04/28 02:02:43;;;;;;;6.15;3.65;;;10.60;95.50;;;;;;4954861;28;20168;-75
2022/04/28 02:05:10;;;;;;;5.57;5.07;;;10.60;95.60;;;;;;4937229;29;20172;-74
2022/04/28 02:07:36;;;;;;;6.15;4.65;;;10.60;95.70;;;;;;4937010;29;20268;-74
2022/04/28 02:10:04;;;;;;;7.88;4.60;;;10.50;95.90;;;;;;4935932;29;20192;-75
2022/04/28 02:12:30;;;;;;;6.40;4.82;;;10.40;96.10;;;;;;4936895;29;20667;-74
2022/04/28 02:15:16;;;;;;;5.65;4.70;;;10.50;96.30;;;;;;4953819;28;20203;-74
2022/04/28 02:18:04;;;;;;;5.20;4.32;;;10.40;96.40;;;;;;4936226;28;20212;-74
2022/04/28 02:20:31;;;;;;;4.93;4.03;;;10.40;96.50;;;;;;4935998;28;20295;-75
2022/04/28 02:22:58;;;;;;;7.55;4.97;;;10.40;96.70;;;;;;4936506;29;20583;-74
2022/04/28 02:25:24;;;;;;;7.28;4.28;;;10.30;96.80;;;;;;4936356;29;20208;-75
2022/04/28 02:27:50;;;;;;;6.25;4.90;;;10.30;97.00;;;;;;4936078;29;20180;-75
2022/04/28 02:30:19;;;;;;;7.93;4.75;;;10.30;97.20;;;;;;4920299;29;20279;-74
2022/04/28 02:33:27;;;;;;;9.13;4.50;;;10.30;97.40;;;;;;4936420;29;20181;-74
2022/04/28 02:35:57;;;;;;;5.93;4.90;;;10.30;97.60;;;;;;4936193;28;20200;-75
2022/04/28 02:38:23;;;;;;;7.27;4.77;;;10.20;97.90;;;;;;4935868;29;20645;-74
2022/04/28 02:40:53;;;;;;;9.48;5.40;;;10.20;97.80;;;;;;4935694;29;20600;-74
2022/04/28 02:43:19;;;;;;;5.97;4.87;;;10.10;98.00;;;;;;4953324;28;20211;-74
2022/04/28 02:45:53;;;;;;;6.20;5.07;;;10.10;98.20;;;;;;4936375;28;20569;-74
2022/04/28 02:48:23;;;;;;;6.97;5.18;;;10.10;98.30;;;;;;4935896;28;20180;-74
2022/04/28 02:50:52;;;;;;;6.25;5.65;;;10.10;98.40;;;;;;4935816;29;20204;-74
2022/04/28 02:53:18;;;;;;;6.78;4.65;;;10.10;98.60;;;;;;4920655;29;20659;-74
2022/04/28 02:55:49;;;;;;;5.22;4.50;;;10.10;98.80;;;;;;4936946;29;20298;-75
2022/04/28 02:58:14;;;;;;;5.80;4.60;;;10.10;98.90;;;;;;4936428;28;20196;-75
2022/04/28 03:00:40;;;;;;;8.50;5.27;;;10.00;99.10;;;;;;4936225;28;20203;-74
2022/04/28 03:03:09;;;;;;;7.72;4.85;;;10.00;99.20;;;;;;4936475;29;20188;-74
2022/04/28 03:10:46;;;;;;;6.40;4.65;;;10.00;99.30;;;;;;4936270;28;20264;-74
2022/04/28 03:11:05;;;;;;;5.68;4.70;;;10.00;99.70;;;;;;4956250;28;20266;-74
2022/04/28 03:13:33;;;;;;;4.43;4.03;;;10.00;99.80;;;;;;4939987;28;20183;-74
2022/04/28 03:16:00;;;;;;;5.95;5.05;;;10.00;99.90;;;;;;4939928;29;20196;-74
2022/04/28 03:18:46;;;;;;;6.68;5.40;;;9.90;99.90;;;;;;4956183;28;20172;-75
2022/04/28 03:21:13;;;;;;;6.47;5.07;;;9.90;99.90;;;;;;4939533;29;20191;-75
2022/04/28 03:23:39;;;;;;;5.55;4.72;;;9.90;99.90;;;;;;4939404;29;20937;-74
2022/04/28 03:26:05;;;;;;;7.72;5.70;;;9.80;99.90;;;;;;4939750;29;20179;-74
2022/04/28 03:28:34;;;;;;;6.20;5.67;;;9.80;99.90;;;;;;4939150;28;20185;-75
2022/04/28 03:31:04;;;;;;;7.28;5.93;;;9.80;99.90;;;;;;4956423;28;21140;-75
2022/04/28 03:33:36;;;;;;;5.75;4.75;;;9.80;99.90;;;;;;4939434;29;20180;-75
2022/04/28 03:36:50;;;;;;;6.00;5.13;;;9.70;99.90;;;;;;4939477;28;20204;-75
2022/04/28 03:38:49;;;;;;;7.15;5.32;;;9.70;99.90;;;;;;4938779;28;20632;-74
2022/04/28 03:41:14;;;;;;;6.67;5.00;;;9.70;99.90;;;;;;4939120;28;20259;-74
2022/04/28 03:43:40;;;;;;;6.70;5.53;;;9.70;99.90;;;;;;4939243;28;21104;-74
2022/04/28 03:46:06;;;;;;;8.65;5.35;;;9.70;99.90;;;;;;4956376;28;20180;-75
2022/04/28 03:48:33;;;;;;;5.10;4.57;;;9.70;99.90;;;;;;4938753;29;20180;-74
2022/04/28 03:50:58;;;;;;;8.93;5.70;;;9.70;99.90;;;;;;4979787;28;20657;-74
2022/04/28 03:53:24;;;;;;;7.00;6.00;;;9.60;99.90;;;;;;4964543;28;20210;-74
2022/04/28 03:55:50;;;;;;;7.27;5.30;;;9.60;99.90;;;;;;4957184;28;20210;-74
2022/04/28 03:58:16;;;;;;;10.00;6.45;;;9.60;99.90;;;;;;4957796;28;20164;-74
2022/04/28 04:00:43;;;;;;;9.93;6.47;;;9.60;99.90;;;;;;4957707;28;20203;-74
2022/04/28 04:03:17;;;;;;;7.13;5.57;;;9.60;99.90;;;;;;4958176;28;20625;-74
2022/04/28 04:05:43;;;;;;;8.07;5.97;;;9.60;99.90;;;;;;4957953;28;20168;-74
2022/04/28 04:08:08;;;;;;;7.00;5.73;;;9.50;99.90;;;;;;4957479;28;20172;-75
2022/04/28 04:10:41;;;;;;;15.15;9.43;;;9.50;99.90;;;;;;4957765;28;20265;-75
2022/04/28 04:13:08;;;;;;;9.65;6.97;;;9.50;99.90;;;;;;4942132;28;20172;-75
2022/04/28 04:15:50;;;;;;;7.32;5.80;;;9.50;99.90;;;;;;4957415;28;20342;-75
2022/04/28 04:18:21;;;;;;;6.53;5.85;;;9.50;99.90;;;;;;4974935;28;20179;-74
2022/04/28 04:20:53;;;;;;;7.65;6.72;;;9.50;99.90;;;;;;4956946;28;20250;-74
2022/04/28 04:23:18;;;;;;;8.23;6.10;;;9.50;99.90;;;;;;4957707;28;20269;-74
2022/04/28 04:25:45;;;;;;;6.23;5.63;;;9.50;99.90;;;;;;4957449;28;20176;-74
2022/04/28 04:28:17;;;;;;;8.88;6.32;;;9.50;99.90;;;;;;4941036;28;20571;-74
2022/04/28 04:34:04;;;;;;;8.70;6.75;;;9.50;99.90;;;;;;4967503;28;20246;-74
2022/04/28 04:36:30;;;;;;;8.27;6.20;;;9.50;99.90;;;;;;4957252;28;20195;-74
2022/04/28 04:38:57;;;;;;;8.15;6.10;;;9.50;99.90;;;;;;4956829;28;20168;-74
2022/04/28 04:41:24;;;;;;;8.32;5.95;;;9.60;99.90;;;;;;4941027;28;20587;-74
2022/04/28 04:43:49;;;;;;;13.47;7.20;;;9.60;99.90;;;;;;4974461;28;20171;-74
2022/04/28 04:46:15;;;;;;;8.10;6.63;;;9.60;99.90;;;;;;4974630;28;20625;-74
2022/04/28 04:48:41;;;;;;;13.37;7.70;;;9.60;99.90;;;;;;4956915;28;20167;-74
2022/04/28 04:51:25;;;;;;;6.90;5.88;;;9.60;99.90;;;;;;4974091;28;20586;-74
2022/04/28 04:54:23;;;;;;;7.53;6.35;;;9.70;99.90;;;;;;4967635;28;20176;-74
2022/04/28 04:56:50;;;;;;;8.27;6.53;;;9.70;99.90;;;;;;4958149;28;20176;-76
2022/04/28 04:59:16;;;;;;;9.57;7.20;;;9.80;99.90;;;;;;4940683;28;20554;-76
2022/04/28 05:01:42;;;;;;;9.50;6.70;;;9.80;99.90;;;;;;4940674;28;20242;-76
2022/04/28 05:04:27;;;;;;;10.25;7.38;;;9.80;99.90;;;;;;4974217;28;20167;-75
2022/04/28 05:07:11;;;;;;;8.00;7.07;;;9.90;99.90;;;;;;4974414;28;20730;-75
2022/04/28 05:09:39;;;;;;;7.95;7.15;;;9.90;99.90;;;;;;4956097;28;20238;-76
2022/04/28 05:12:06;;;;;;;8.48;7.55;;;10.00;99.90;;;;;;4974238;28;20211;-76
2022/04/28 05:15:04;;;;;;;9.30;6.50;;;10.10;99.90;;;;;;4951648;28;20215;-76
2022/04/28 05:17:39;;;;;;;9.32;7.70;;;10.10;99.90;;;;;;4956221;28;20171;-76
2022/04/28 05:20:34;;;;;;;9.73;6.97;;;10.20;99.90;;;;;;4937154;28;20608;-75
2022/04/28 05:23:23;;;;;;;9.25;6.90;;;10.30;99.90;;;;;;4971546;28;20172;-75
2022/04/28 05:26:20;;;;;;;10.88;7.40;;;10.40;99.90;;;;;;4973809;28;20246;-76
2022/04/28 05:29:23;;;;;;;8.32;6.32;;;10.50;99.90;;;;;;4956195;28;20203;-76
2022/04/28 05:32:08;;;;;;;8.68;6.68;;;10.60;99.90;;;;;;4974229;28;20160;-76
2022/04/28 05:35:12;;;;;;;9.52;6.78;;;10.60;99.90;;;;;;4933394;29;20204;-76
2022/04/28 05:37:39;;;;;;;9.90;6.10;;;10.80;99.90;;;;;;4916957;29;20169;-76
2022/04/28 05:40:06;;;;;;;9.85;7.85;;;10.90;99.90;;;;;;4919788;28;20208;-76
2022/04/28 05:48:01;;;;;;;9.43;8.40;;;11.20;99.90;;;;;;4972794;28;20175;-76
2022/04/28 05:50:36;;;;;;;11.73;7.47;;;11.30;99.90;;;;;;4973188;28;20283;-76
2022/04/28 05:53:02;;;;;;;9.05;8.15;;;11.40;99.90;;;;;;4956160;28;20312;-76
2022/04/28 05:55:28;;;;;;;10.63;7.97;;;11.50;99.90;;;;;;5001803;23;20720;-77
2022/04/28 05:57:56;;;;;;;8.85;7.95;;;11.60;99.90;;;;;;4986163;28;20261;-77
2022/04/28 06:00:23;;;;;;;9.68;8.60;;;11.70;99.90;;;;;;4993286;28;20178;-77
2022/04/28 06:02:49;;;;;;;14.10;10.40;;;11.80;99.90;;;;;;4983969;28;20189;-77
2022/04/28 06:05:24;;;;;;;10.73;9.40;;;12.00;99.90;;;;;;4990351;28;20248;-78
2022/04/28 06:07:51;;;;;;;10.18;9.00;;;12.10;99.90;;;;;;4989574;28;21116;-78
2022/04/28 06:10:18;;;;;;;11.35;8.27;;;12.30;99.90;;;;;;4972363;28;20210;-79
2022/04/28 06:12:45;;;;;;;10.15;8.65;;;12.40;99.90;;;;;;4984674;28;20202;-78
2022/04/28 06:15:20;;;;;;;11.57;9.20;;;12.50;99.90;;;;;;4971715;28;20273;-78
2022/04/28 06:18:08;;;;;;;10.45;8.60;;;12.70;99.90;;;;;;4970955;28;20175;-77
2022/04/28 06:20:35;;;;;;;10.07;9.05;;;13.00;99.90;;;;;;4974628;28;20241;-78
2022/04/28 06:23:11;;;;;;;10.13;9.13;;;13.50;99.90;;;;;;4956223;28;20236;-79
2022/04/28 06:25:42;;;;;;;11.83;8.60;;;14.20;99.90;;;;;;4975170;28;20988;-79
2022/04/28 06:28:12;;;;;;;8.93;8.03;;;15.20;99.90;;;;;;4973156;28;20582;-79
2022/04/28 06:30:40;;;;;;;10.50;9.20;;;16.10;99.90;;;;;;4990741;28;20940;-78
2022/04/28 06:33:21;;;;;;;9.80;7.67;;;17.20;99.90;;;;;;4976687;28;20596;-79
2022/04/28 06:35:55;;;;;;;12.47;7.47;;;18.40;99.90;;;;;;4986262;28;20744;-80
2022/04/28 06:38:25;;;;;;;9.60;8.03;;;19.50;99.90;;;;;;4986453;28;20588;-81
2022/04/28 06:40:52;;;;;;;7.30;6.23;;;20.60;99.90;;;;;;4976980;28;20681;-80
2022/04/28 06:43:18;;;;;;;8.13;7.37;;;21.50;99.90;;;;;;4959189;28;20574;-81
2022/04/28 06:46:19;;;;;;;8.10;7.40;;;22.40;99.90;;;;;;4993739;28;20618;-80
2022/04/28 06:49:16;;;;;;;9.40;7.80;;;23.30;99.90;;;;;;4992588;28;20947;-81
2022/04/28 06:52:11;;;;;;;10.63;7.00;;;24.20;99.90;;;;;;4993118;28;20733;-79
2022/04/28 06:54:55;;;;;;;9.67;8.77;;;25.00;99.80;;;;;;4992746;28;20702;-81
2022/04/28 06:57:30;;;;;;;8.03;7.17;;;25.70;97.20;;;;;;4960018;28;20624;-81
2022/04/28 07:00:06;;;;;;;7.60;6.80;;;26.20;95.40;;;;;;4959798;28;20613;-81
2022/04/28 07:02:39;;;;;;;8.77;6.93;;;26.80;94.70;;;;;;4975766;28;20597;-81
2022/04/28 07:05:05;;;;;;;8.37;7.53;;;27.40;93.30;;;;;;4975494;28;20704;-80
2022/04/28 07:07:32;;;;;;;12.13;8.00;;;27.80;91.50;;;;;;4976283;28;20609;-82
2022/04/28 07:10:01;;;;;;;9.17;7.47;;;28.30;89.50;;;;;;4959058;28;20982;-81
2022/04/28 07:12:27;;;;;;;7.80;7.20;;;28.60;85.10;;;;;;4959923;28;20744;-81
2022/04/28 07:14:56;;;;;;;8.07;6.50;;;28.90;83.50;;;;;;4976440;28;20634;-81
2022/04/28 07:17:41;;;;;;;10.13;7.83;;;29.30;81.20;;;;;;4993105;28;20597;-81
2022/04/28 07:20:08;;;;;;;9.17;8.37;;;29.60;79.10;;;;;;4988854;28;20610;-81
2022/04/28 07:22:35;;;;;;;8.10;7.30;;;30.00;76.10;;;;;;4978373;28;20623;-81
2022/04/28 07:25:03;;;;;;;8.67;7.97;;;30.30;74.40;;;;;;4976007;28;21006;-81
2022/04/28 07:27:29;;;;;;;7.27;6.57;;;30.60;72.40;;;;;;4974393;28;20571;-80
2022/04/28 07:30:05;;;;;;;8.40;7.70;;;30.90;70.80;;;;;;4971608;28;20665;-80
2022/04/28 07:32:40;;;;;;;8.40;7.67;;;31.20;68.20;;;;;;4973225;28;20587;-81
2022/04/28 07:35:15;;;;;;;8.03;7.23;;;31.40;66.80;;;;;;4973186;28;20653;-81
2022/04/28 07:37:59;;;;;;;7.93;7.17;;;31.70;66.00;;;;;;4972948;28;20563;-81
2022/04/28 07:40:32;;;;;;;7.93;7.20;;;32.00;62.70;;;;;;4973094;28;20579;-80
2022/04/28 07:43:00;;;;;;;8.20;7.50;;;32.20;61.50;;;;;;4967225;28;20661;-80
2022/04/28 07:45:26;;;;;;;7.60;6.93;;;32.40;60.40;;;;;;4962221;28;20619;-80
2022/04/28 07:47:52;;;;;;;7.90;7.30;;;32.60;59.20;;;;;;4983895;28;20587;-80
2022/04/28 07:50:23;;;;;;;8.03;7.30;;;32.70;58.50;;;;;;4990592;28;20580;-80
2022/04/28 07:52:52;;;;;;;8.03;7.40;;;33.00;57.60;;;;;;4991221;28;20570;-80
2022/04/28 07:55:18;;;;;;;8.03;7.33;;;33.20;56.20;;;;;;4990595;28;20991;-80
2022/04/28 07:57:48;;;;;;;7.80;7.10;;;33.20;55.40;;;;;;4961898;28;20180;-80
2022/04/28 08:00:22;;;;;;;7.90;7.20;;;33.40;54.90;;;;;;4993187;28;20687;-80
2022/04/28 08:02:54;;;;;;;7.63;6.93;;;33.60;54.50;;;;;;4969245;28;20628;-81
2022/04/28 08:05:25;;;;;;;11.03;8.00;;;33.80;54.00;;;;;;4973150;28;21200;-80
2022/04/28 08:07:51;;;;;;;9.77;8.87;;;34.00;53.20;;;;;;4992745;28;20605;-80
2022/04/28 08:10:17;;;;;;;8.87;8.07;;;34.20;51.40;;;;;;4961068;28;20579;-81
2022/04/28 08:12:43;;;;;;;8.97;8.20;;;34.20;49.60;;;;;;4977217;28;20554;-80
2022/04/28 08:15:29;;;;;;;9.57;8.50;;;34.30;49.80;;;;;;4963351;28;20674;-80
2022/04/28 08:17:55;;;;;;;8.13;7.43;;;34.40;49.20;;;;;;4977223;28;20587;-82
2022/04/28 08:20:21;;;;;;;10.00;7.60;;;34.50;48.90;;;;;;4993737;28;20273;-80
2022/04/28 08:22:46;;;;;;;10.70;9.70;;;34.50;47.90;;;;;;4958472;28;20642;-81
2022/04/28 08:25:12;;;;;;;8.13;7.23;;;34.50;47.60;;;;;;4957954;28;20202;-81
2022/04/28 08:27:38;;;;;;;9.37;8.60;;;34.50;47.50;;;;;;4957604;28;20183;-82
2022/04/28 08:30:05;;;;;;;9.57;8.67;;;34.60;47.00;;;;;;4942104;28;20179;-81
2022/04/28 08:32:31;;;;;;;9.40;8.50;;;34.70;46.50;;;;;;4961648;28;20664;-81
2022/04/28 08:34:57;;;;;;;9.00;8.10;;;34.80;45.80;;;;;;4965607;28;21418;-80
2022/04/28 08:37:23;;;;;;;10.07;9.07;;;34.90;46.00;;;;;;4971288;28;20593;-80
2022/04/28 08:39:48;;;;;;;9.00;8.23;;;35.00;46.00;;;;;;4982046;28;20174;-81
2022/04/28 08:42:15;;;;;;;9.63;8.63;;;35.10;45.30;;;;;;4978717;28;20185;-82
2022/04/28 08:45:00;;;;;;;9.07;8.37;;;35.10;44.20;;;;;;4977058;28;20196;-82
2022/04/28 08:47:48;;;;;;;7.93;7.23;;;35.20;44.60;;;;;;4984296;28;20634;-82
2022/04/28 08:50:40;;;;;;;8.17;7.40;;;35.30;44.60;;;;;;4977108;28;20660;-82
2022/04/28 08:53:09;;;;;;;10.47;8.53;;;35.40;43.90;;;;;;4993269;28;20589;-81
2022/04/28 08:55:37;;;;;;;8.03;7.37;;;35.40;43.30;;;;;;4993730;28;20683;-82
2022/04/28 08:58:04;;;;;;;8.97;8.20;;;35.40;43.10;;;;;;4976802;28;20669;-81
2022/04/28 09:00:37;;;;;;;7.43;6.73;;;35.50;43.00;;;;;;4976651;28;21237;-81
2022/04/28 09:03:22;;;;;;;8.50;7.63;;;35.50;42.90;;;;;;4993842;28;20636;-81
2022/04/28 09:06:18;;;;;;;6.07;5.47;;;35.60;41.70;;;;;;4994136;28;20611;-81
2022/04/28 09:09:12;;;;;;;7.57;7.00;;;35.60;41.60;;;;;;4992771;28;20648;-81
2022/04/28 09:12:03;;;;;;;7.50;6.90;;;35.70;41.80;;;;;;4993684;28;20611;-82
2022/04/28 09:14:43;;;;;;;8.73;6.37;;;35.80;40.70;;;;;;4994422;28;20634;-81
2022/04/28 09:17:10;;;;;;;7.50;6.80;;;35.90;41.30;;;;;;4975858;28;20973;-81
2022/04/28 09:19:38;;;;;;;6.27;5.70;;;36.00;40.10;;;;;;4979264;28;20617;-81
2022/04/28 09:22:14;;;;;;;10.70;7.50;;;36.10;40.80;;;;;;4980465;28;20175;-81
2022/04/28 09:24:44;;;;;;;7.27;6.63;;;36.20;40.40;;;;;;4978917;28;20690;-81
2022/04/28 09:27:12;;;;;;;6.80;6.20;;;36.20;39.70;;;;;;4980139;28;20745;-81
2022/04/28 09:29:44;;;;;;;6.83;6.33;;;36.30;39.30;;;;;;4993609;28;21336;-81
2022/04/28 09:32:15;;;;;;;6.30;5.80;;;36.30;39.00;;;;;;4986320;28;20586;-81
2022/04/28 09:35:08;;;;;;;6.53;6.03;;;36.50;39.20;;;;;;4996194;28;20630;-81
2022/04/28 09:37:58;;;;;;;7.37;5.27;;;36.80;39.20;;;;;;4976739;28;20574;-80
2022/04/28 09:43:08;;;;;;;5.60;5.10;;;36.90;37.80;;;;;;4995888;28;20579;-80
2022/04/28 09:45:38;;;;;;;5.83;5.33;;;37.00;37.60;;;;;;4963924;28;20622;-80
2022/04/28 09:48:05;;;;;;;6.97;5.50;;;36.90;36.70;;;;;;4976474;28;20574;-81
2022/04/28 09:50:39;;;;;;;5.77;5.27;;;36.80;36.30;;;;;;4977318;28;20617;-80
2022/04/28 09:53:33;;;;;;;5.60;5.10;;;36.70;36.10;;;;;;4960612;28;20665;-80
2022/04/28 09:56:06;;;;;;;5.87;5.30;;;36.60;35.60;;;;;;4992014;28;20700;-80
2022/04/28 09:58:51;;;;;;;7.07;6.20;;;36.60;35.60;;;;;;4993308;28;20609;-80
2022/04/28 10:01:18;;;;;;;7.07;6.33;;;36.40;35.80;;;;;;4975383;28;21119;-81
2022/04/28 10:03:45;;;;;;;5.57;4.90;;;36.20;34.80;;;;;;4975795;28;20582;-82
2022/04/28 10:06:18;;;;;;;6.67;5.93;;;36.10;35.20;;;;;;4971864;28;21161;-81
2022/04/28 10:08:58;;;;;;;5.70;5.30;;;36.10;35.10;;;;;;5001932;28;20628;-81
2022/04/28 10:11:26;;;;;;;5.97;5.50;;;36.10;35.50;;;;;;4992188;28;20580;-82
2022/04/28 10:13:55;;;;;;;5.97;5.47;;;36.10;35.80;;;;;;4993877;28;20956;-81
2022/04/28 10:16:24;;;;;;;6.40;5.73;;;36.20;35.60;;;;;;4978014;28;20643;-81
2022/04/28 10:19:01;;;;;;;5.90;5.40;;;36.30;35.50;;;;;;5010990;28;20577;-81
2022/04/28 10:21:35;;;;;;;5.90;5.30;;;36.40;35.00;;;;;;4993899;28;20584;-80
2022/04/28 10:33:01;;;;;;;5.57;5.07;;;35.90;34.00;;;;;;4973112;28;20588;-80
2022/04/28 10:35:40;;;;;;;7.37;6.43;;;35.90;34.30;;;;;;4970953;28;20649;-79
2022/04/28 10:38:20;;;;;;;7.00;6.40;;;35.60;33.50;;;;;;4978640;28;20604;-79
2022/04/28 10:40:58;;;;;;;6.13;5.63;;;35.40;33.40;;;;;;4986367;28;20597;-78
2022/04/28 10:43:31;;;;;;;5.27;4.87;;;35.20;33.60;;;;;;4989143;28;20588;-78
2022/04/28 10:45:59;;;;;;;7.50;6.80;;;34.80;33.90;;;;;;4994678;28;20691;-79
2022/04/28 10:48:31;;;;;;;5.90;5.50;;;34.50;33.60;;;;;;4993443;28;21252;-78
2022/04/28 10:51:26;;;;;;;6.67;5.80;;;34.10;33.70;;;;;;4980371;28;20703;-79
2022/04/28 10:54:09;;;;;;;6.80;6.10;;;33.80;33.90;;;;;;4973790;28;20622;-78
2022/04/28 10:57:05;;;;;;;6.50;6.00;;;33.60;34.20;;;;;;4991384;28;20992;-78
2022/04/28 10:59:37;;;;;;;5.90;5.40;;;33.30;33.80;;;;;;4979701;28;20692;-78
2022/04/28 11:02:15;;;;;;;6.30;5.70;;;33.00;33.80;;;;;;4942145;28;20656;-79
2022/04/28 11:04:52;;;;;;;6.10;5.60;;;32.80;33.80;;;;;;4975480;28;21164;-79
2022/04/28 11:07:23;;;;;;;7.07;6.43;;;32.60;34.10;;;;;;5002947;28;20616;-78
2022/04/28 11:09:57;;;;;;;7.47;6.20;;;32.40;33.70;;;;;;5011872;28;20573;-79
2022/04/28 11:12:31;;;;;;;8.83;6.23;;;32.00;33.70;;;;;;4993913;28;20622;-79
2022/04/28 11:15:02;;;;;;;6.07;5.53;;;31.80;34.10;;;;;;4982971;28;20669;-78
2022/04/28 11:17:30;;;;;;;7.53;6.00;;;31.60;34.30;;;;;;5000047;28;20592;-78
2022/04/28 11:20:04;;;;;;;7.23;6.37;;;31.50;34.90;;;;;;5002422;28;21144;-79
2022/04/28 11:22:32;;;;;;;7.13;6.53;;;31.40;34.70;;;;;;4987133;28;20598;-79
2022/04/28 11:24:59;;;;;;;7.87;7.20;;;31.30;34.60;;;;;;4979501;28;20621;-79
2022/04/28 11:27:35;;;;;;;8.60;7.90;;;31.20;34.50;;;;;;4969044;28;20941;-78
2022/04/28 11:30:10;;;;;;;7.80;7.00;;;31.10;35.00;;;;;;4974457;28;20597;-78
2022/04/28 11:32:49;;;;;;;8.87;7.97;;;30.90;34.50;;;;;;4992532;28;20612;-77
2022/04/28 11:35:15;;;;;;;7.60;6.90;;;30.80;34.70;;;;;;5009479;28;20739;-79
2022/04/28 11:37:41;;;;;;;7.30;6.60;;;30.60;34.90;;;;;;5014377;28;21203;-78
2022/04/28 11:40:12;;;;;;;7.93;7.03;;;30.50;35.00;;;;;;5010375;28;20612;-79
2022/04/28 11:42:41;;;;;;;6.23;5.63;;;30.30;34.80;;;;;;5006654;28;20660;-79
2022/04/28 11:45:08;;;;;;;7.30;6.60;;;30.20;35.90;;;;;;4965906;28;20743;-78
2022/04/28 11:47:45;;;;;;;7.00;6.30;;;30.10;35.60;;;;;;5014182;28;20668;-77
2022/04/28 11:50:24;;;;;;;7.97;7.27;;;30.00;35.40;;;;;;5006184;28;20985;-78
2022/04/28 11:53:11;;;;;;;6.80;6.20;;;29.80;35.30;;;;;;5013746;28;20577;-78
2022/04/28 11:55:40;;;;;;;7.37;5.73;;;29.70;35.60;;;;;;5002018;28;20769;-79
2022/04/28 11:58:08;;;;;;;6.97;6.23;;;29.60;35.90;;;;;;4999302;23;20666;-75
2022/04/28 12:00:45;;;;;;;8.57;6.07;;;29.60;36.20;;;;;;5002135;28;20594;-76
2022/04/28 12:03:23;;;;;;;8.20;7.30;;;29.50;36.40;;;;;;4980704;28;20630;-76
2022/04/28 12:05:53;;;;;;;7.93;6.53;;;29.50;36.20;;;;;;4976445;28;20586;-76
2022/04/28 12:08:24;;;;;;;7.43;6.73;;;29.50;36.30;;;;;;4991990;28;20658;-76
2022/04/28 12:16:22;;;;;;;7.87;6.57;;;29.20;36.40;;;;;;4993891;28;20748;-76
2022/04/28 12:21:37;;;;;;;9.43;7.10;;;28.90;35.90;;;;;;4993510;28;20614;-77
2022/04/28 12:24:11;;;;;;;7.03;6.33;;;28.50;35.50;;;;;;4994151;28;20582;-76
2022/04/28 12:26:40;;;;;;;6.80;5.97;;;28.20;36.10;;;;;;4993877;28;20736;-76
2022/04/28 12:29:11;;;;;;;8.27;7.50;;;28.00;36.30;;;;;;4976078;28;20605;-76
2022/04/28 12:31:38;;;;;;;7.13;6.50;;;27.90;36.30;;;;;;4992841;28;20657;-76
2022/04/28 12:34:10;;;;;;;9.30;7.90;;;27.60;36.10;;;;;;4990572;28;21233;-76
2022/04/28 12:36:48;;;;;;;7.23;6.53;;;27.40;36.00;;;;;;4991574;28;20630;-76
2022/04/28 12:39:16;;;;;;;6.60;5.77;;;27.00;35.70;;;;;;4992851;28;20594;-75
2022/04/28 12:41:43;;;;;;;7.07;6.37;;;26.70;35.60;;;;;;4959680;28;20574;-76
2022/04/28 12:44:10;;;;;;;7.57;6.90;;;26.30;35.60;;;;;;4976248;28;20602;-76
2022/04/28 12:46:38;;;;;;;10.47;7.90;;;26.00;35.70;;;;;;4993563;28;20562;-75
2022/04/28 12:49:07;;;;;;;7.23;6.53;;;25.60;35.80;;;;;;4993071;28;20620;-76
2022/04/28 12:51:53;;;;;;;8.73;7.50;;;25.20;36.10;;;;;;4975562;28;20580;-76
2022/04/28 12:54:21;;;;;;;9.10;8.30;;;24.90;36.30;;;;;;4976294;28;20582;-76
2022/04/28 12:57:00;;;;;;;8.37;7.57;;;24.50;36.20;;;;;;4993384;28;20618;-76
2022/04/28 12:59:37;;;;;;;8.30;7.30;;;24.20;36.50;;;;;;4992091;28;20606;-75
2022/04/28 13:02:04;;;;;;;5.63;5.10;;;23.80;36.70;;;;;;4975754;28;20570;-75
2022/04/28 13:04:35;;;;;;;9.50;7.30;;;23.50;36.90;;;;;;4959583;28;20562;-75
2022/04/28 13:07:02;;;;;;;7.00;6.30;;;23.30;37.60;;;;;;4991149;28;20594;-76
2022/04/28 13:09:29;;;;;;;8.60;7.70;;;23.10;37.40;;;;;;4988697;28;20654;-76
2022/04/28 13:11:56;;;;;;;7.90;7.10;;;22.90;37.30;;;;;;4992536;28;20582;-76
2022/04/28 13:14:22;;;;;;;7.30;6.50;;;22.80;37.70;;;;;;4992808;28;20566;-77
2022/04/28 13:16:50;;;;;;;7.73;6.90;;;22.70;37.90;;;;;;4992996;28;21036;-77
2022/04/28 13:19:18;;;;;;;6.77;6.03;;;22.60;37.90;;;;;;4974880;28;20625;-77
2022/04/28 13:21:45;;;;;;;9.93;6.80;;;22.50;38.20;;;;;;4992509;28;20563;-76
2022/04/28 13:24:11;;;;;;;7.47;6.70;;;22.40;38.30;;;;;;4992893;28;20582;-77
2022/04/28 13:26:37;;;;;;;6.30;5.70;;;22.40;38.50;;;;;;4991960;28;20570;-77
2022/04/28 13:29:03;;;;;;;7.80;6.03;;;22.30;38.60;;;;;;4992160;28;20190;-76
2022/04/28 13:31:30;;;;;;;7.40;6.10;;;22.20;39.10;;;;;;4958611;28;20582;-77
2022/04/28 13:33:56;;;;;;;8.07;6.40;;;22.20;39.00;;;;;;4992875;28;20578;-77
2022/04/28 13:36:24;;;;;;;7.70;5.90;;;22.10;38.80;;;;;;4992235;28;21026;-77
2022/04/28 13:38:49;;;;;;;9.37;7.53;;;22.10;38.90;;;;;;4992149;28;20628;-77
2022/04/28 13:41:16;;;;;;;8.03;6.30;;;22.00;39.00;;;;;;4992385;28;20616;-77
2022/04/28 13:43:43;;;;;;;7.40;6.23;;;22.00;38.90;;;;;;4992423;28;20206;-76
2022/04/28 13:46:12;;;;;;;6.60;5.90;;;21.90;38.80;;;;;;4992057;28;20650;-77
2022/04/28 13:48:38;;;;;;;6.00;5.00;;;21.80;38.80;;;;;;4958187;28;20610;-77
2022/04/28 13:51:05;;;;;;;8.30;6.70;;;21.80;38.80;;;;;;4992067;28;20673;-77